Time;durP1;ratioP1;P1;durP2;ratioP2;P2;SDS_P1;SDS_P2;PMS_P1;PMS_P2;Temp;Humidity;BMP_temperature;BMP_pressure;BME280_temperature;BME280_humidity;BME280_pressure;Samples;Min_cycle;Max_cycle;Signal;HPM_P1;HPM_P2
2023/06/02 00:01:04;;;;;;;5.63;2.67;;;;;;;15.59;100.00;98604.00;5011758;28;20036;-77
2023/06/02 00:03:32;;;;;;;5.50;2.85;;;;;;;15.66;100.00;98617.50;5014850;28;20099;-77
2023/06/02 00:06:01;;;;;;;7.80;3.03;;;;;;;15.55;100.00;98616.47;5003626;28;20471;-77
2023/06/02 00:08:26;;;;;;;;;;;;;;;15.51;100.00;98618.00;5026636;28;20053;-78
2023/06/02 00:10:52;;;;;;;5.22;2.83;;;;;;;15.39;100.00;98604.41;5044993;28;19913;-78
2023/06/02 00:13:18;;;;;;;7.50;3.10;;;;;;;15.52;100.00;98623.22;5065940;28;20037;-78
2023/06/02 00:15:43;;;;;;;6.53;3.20;;;;;;;15.35;100.00;98605.94;5055573;28;20018;-78
2023/06/02 00:18:09;;;;;;;7.30;3.17;;;;;;;15.28;100.00;98599.81;5046839;28;20013;-78
2023/06/02 00:20:34;;;;;;;5.35;2.75;;;;;;;15.16;100.00;98579.91;5060009;28;20033;-77
2023/06/02 00:23:03;;;;;;;6.63;2.78;;;;;;;15.28;100.00;98616.16;5042264;28;20089;-78
2023/06/02 00:25:30;;;;;;;4.80;2.85;;;;;;;15.27;100.00;98617.19;5057203;28;20018;-78
2023/06/02 00:27:55;;;;;;;4.63;2.58;;;;;;;15.20;100.00;98608.34;5040974;28;20096;-78
2023/06/02 00:30:21;;;;;;;6.13;2.85;;;;;;;15.12;100.00;98613.06;5052892;28;20037;-76
2023/06/02 00:32:46;;;;;;;6.10;2.90;;;;;;;15.07;100.00;98623.03;5056770;28;20013;-76
2023/06/02 00:35:11;;;;;;;6.05;2.90;;;;;;;15.00;100.00;98611.41;5045144;28;20029;-76
2023/06/02 00:37:36;;;;;;;4.07;2.35;;;;;;;14.92;100.00;98615.31;5025409;28;20063;-75
2023/06/02 00:40:03;;;;;;;5.13;2.70;;;;;;;14.90;100.00;98628.34;5046477;28;20017;-76
2023/06/02 00:42:29;;;;;;;6.43;2.90;;;;;;;14.83;100.00;98619.47;5032184;28;20033;-76
2023/06/02 00:44:54;;;;;;;9.63;3.40;;;;;;;14.62;100.00;98618.16;5031318;28;20458;-75
2023/06/02 00:47:19;;;;;;;5.60;3.13;;;;;;;14.63;100.00;98625.25;5022510;28;20474;-76
2023/06/02 00:49:45;;;;;;;9.25;2.90;;;;;;;14.57;100.00;98626.19;5028898;28;20024;-76
2023/06/02 00:52:10;;;;;;;4.90;2.78;;;;;;;14.48;100.00;98631.06;5037479;28;20068;-76
2023/06/02 00:54:36;;;;;;;6.72;3.30;;;;;;;14.28;100.00;98606.91;5038604;28;20455;-76
2023/06/02 00:57:01;;;;;;;6.40;2.78;;;;;;;14.36;100.00;98620.19;5035164;28;20032;-75
2023/06/02 00:59:27;;;;;;;7.28;3.00;;;;;;;14.38;100.00;98628.09;5061735;28;20021;-76
2023/06/02 01:01:53;;;;;;;7.70;3.10;;;;;;;14.30;100.00;98636.59;5042201;28;20029;-76
2023/06/02 01:04:20;;;;;;;4.85;3.03;;;;;;;14.11;100.00;98612.16;5021855;28;20064;-76
2023/06/02 01:06:48;;;;;;;4.93;2.78;;;;;;;14.21;100.00;98615.16;5023076;28;20024;-76
2023/06/02 01:09:16;;;;;;;7.50;3.17;;;;;;;14.23;100.00;98642.97;5020613;28;20044;-76
2023/06/02 01:11:42;;;;;;;5.90;2.90;;;;;;;14.12;100.00;98635.59;5021412;28;20037;-76
2023/06/02 01:14:09;;;;;;;10.32;2.90;;;;;;;14.13;100.00;98631.81;5034061;28;20024;-76
2023/06/02 01:16:35;;;;;;;6.93;3.28;;;;;;;14.09;100.00;98621.59;5031686;28;20147;-76
2023/06/02 01:19:01;;;;;;;8.15;3.45;;;;;;;14.02;100.00;98629.88;5019753;28;20108;-76
2023/06/02 01:21:30;;;;;;;9.55;3.75;;;;;;;14.04;100.00;98630.44;5038947;28;20041;-76
2023/06/02 01:23:59;;;;;;;7.07;3.33;;;;;;;14.00;100.00;98637.44;5016761;28;20029;-75
2023/06/02 01:26:25;;;;;;;9.10;3.27;;;;;;;13.86;100.00;98619.59;5035111;28;20075;-76
2023/06/02 01:28:50;;;;;;;9.80;3.50;;;;;;;13.85;100.00;98620.69;5025581;28;20390;-76
2023/06/02 01:31:23;;;;;;;5.65;3.17;;;;;;;13.76;100.00;98622.88;5043982;28;20036;-76
2023/06/02 01:34:13;;;;;;;8.73;3.30;;;;;;;13.76;100.00;98637.31;5032456;28;20029;-76
2023/06/02 01:36:41;;;;;;;8.15;3.05;;;;;;;13.67;100.00;98638.66;5041494;28;20029;-74
2023/06/02 01:39:09;;;;;;;4.35;2.70;;;;;;;13.55;100.00;98625.00;5031827;28;20571;-74
2023/06/02 01:41:40;;;;;;;9.15;2.97;;;;;;;13.50;100.00;98633.00;5024404;28;20056;-73
2023/06/02 01:44:05;;;;;;;7.63;3.30;;;;;;;13.50;100.00;98635.72;5040617;28;20033;-74
2023/06/02 01:46:31;;;;;;;6.28;2.75;;;;;;;13.43;100.00;98636.84;5027069;28;20029;-74
2023/06/02 01:48:56;;;;;;;6.22;2.85;;;;;;;13.48;100.00;98637.00;5035779;28;20032;-74
2023/06/02 01:51:21;;;;;;;6.57;3.25;;;;;;;13.58;100.00;98659.06;5038823;28;20104;-74
2023/06/02 01:53:47;;;;;;;9.30;2.92;;;;;;;13.59;100.00;98663.44;5034079;28;20044;-75
2023/06/02 01:56:12;;;;;;;6.25;3.25;;;;;;;13.44;100.00;98657.53;5029407;28;20028;-75
2023/06/02 01:58:38;;;;;;;6.13;3.40;;;;;;;13.29;100.00;98634.28;5035531;28;20021;-74
2023/06/02 02:01:03;;;;;;;5.32;3.40;;;;;;;13.29;100.00;98642.44;5023023;28;20055;-75
2023/06/02 02:03:32;;;;;;;6.00;3.35;;;;;;;13.31;100.00;98653.91;5053940;28;20036;-74
2023/06/02 02:05:58;;;;;;;6.75;3.28;;;;;;;13.13;100.00;98643.00;5024878;28;20039;-75
2023/06/02 02:08:23;;;;;;;7.38;3.55;;;;;;;13.12;100.00;98652.19;5051714;28;20033;-75
2023/06/02 02:10:48;;;;;;;5.90;3.08;;;;;;;13.09;100.00;98655.34;5024466;28;20100;-75
2023/06/02 02:13:14;;;;;;;7.00;3.28;;;;;;;12.88;100.00;98637.56;5037522;28;20486;-75
2023/06/02 02:15:39;;;;;;;6.13;3.97;;;;;;;12.83;100.00;98643.66;5032638;28;20029;-75
2023/06/02 02:18:05;;;;;;;5.80;3.25;;;;;;;12.69;100.00;98625.84;5041435;28;20545;-75
2023/06/02 02:20:30;;;;;;;10.40;3.45;;;;;;;12.45;100.00;98582.19;5021559;28;20111;-75
2023/06/02 02:22:56;;;;;;;7.50;4.07;;;;;;;12.57;100.00;98614.03;5021763;28;20025;-75
2023/06/02 02:25:21;;;;;;;6.47;3.40;;;;;;;12.68;100.00;98646.72;5033680;28;20037;-75
2023/06/02 02:27:47;;;;;;;8.02;3.70;;;;;;;12.59;100.00;98625.50;5050090;28;20032;-75
2023/06/02 02:30:12;;;;;;;10.52;3.95;;;;;;;12.47;100.00;98611.78;5043218;28;20053;-75
2023/06/02 02:32:44;;;;;;;4.50;3.17;;;;;;;12.63;100.00;98645.72;5022734;28;20021;-75
2023/06/02 02:35:10;;;;;;;5.82;3.42;;;;;;;12.59;100.00;98656.19;5036878;28;20087;-75
2023/06/02 02:37:36;;;;;;;8.32;3.53;;;;;;;12.65;100.00;98659.88;5033096;28;20037;-75
2023/06/02 02:40:02;;;;;;;6.75;3.75;;;;;;;12.52;100.00;98647.25;5028460;28;20044;-75
2023/06/02 02:42:28;;;;;;;6.47;3.47;;;;;;;12.55;100.00;98651.41;5019369;28;20022;-75
2023/06/02 02:44:53;;;;;;;6.20;3.65;;;;;;;12.52;100.00;98646.41;5037979;28;20025;-75
2023/06/02 02:47:19;;;;;;;6.18;3.70;;;;;;;12.53;100.00;98657.06;5026049;28;20025;-75
2023/06/02 02:49:44;;;;;;;13.98;3.85;;;;;;;12.55;100.00;98646.81;5016945;28;20084;-75
2023/06/02 02:52:10;;;;;;;6.50;3.60;;;;;;;12.58;100.00;98664.56;5036267;28;20152;-75
2023/06/02 02:54:35;;;;;;;7.32;4.15;;;;;;;12.52;100.00;98652.66;5014393;28;20033;-75
2023/06/02 02:57:01;;;;;;;9.75;4.22;;;;;;;12.50;100.00;98652.91;5021305;28;20021;-75
2023/06/02 02:59:27;;;;;;;8.73;3.75;;;;;;;12.42;100.00;98646.91;5015495;28;20026;-76
2023/06/02 03:01:52;;;;;;;8.13;4.15;;;;;;;12.36;100.00;98643.19;5035812;28;20021;-75
2023/06/02 03:04:24;;;;;;;7.50;3.97;;;;;;;12.39;100.00;98675.31;5025192;28;20501;-75
2023/06/02 03:06:52;;;;;;;10.70;4.05;;;;;;;12.34;100.00;98679.72;5027741;28;20021;-75
2023/06/02 03:09:19;;;;;;;7.60;4.45;;;;;;;12.29;100.00;98683.09;5017078;28;20022;-75
2023/06/02 03:11:45;;;;;;;7.22;4.20;;;;;;;12.15;100.00;98671.47;5012389;28;20022;-75
2023/06/02 03:14:10;;;;;;;7.00;4.43;;;;;;;12.18;100.00;98670.19;5021520;28;20022;-75
2023/06/02 03:16:39;;;;;;;7.90;3.97;;;;;;;11.97;100.00;98658.66;5024980;28;20497;-75
2023/06/02 03:19:04;;;;;;;13.20;4.68;;;;;;;11.98;100.00;98656.75;5052007;28;20017;-74
2023/06/02 03:21:31;;;;;;;8.40;4.20;;;;;;;11.99;100.00;98669.25;5016489;28;20400;-75
2023/06/02 03:23:58;;;;;;;11.25;4.93;;;;;;;11.94;100.00;98669.06;5038964;28;20029;-74
2023/06/02 03:26:26;;;;;;;10.30;4.35;;;;;;;12.00;100.00;98681.78;5046511;28;20025;-75
2023/06/02 03:28:54;;;;;;;7.82;4.18;;;;;;;11.87;100.00;98666.41;5039551;28;20455;-75
2023/06/02 03:31:20;;;;;;;9.48;5.35;;;;;;;11.92;100.00;98672.03;5013398;28;20156;-74
2023/06/02 03:33:46;;;;;;;9.88;5.00;;;;;;;11.84;100.00;98667.63;5021857;28;20116;-74
2023/06/02 03:36:12;;;;;;;9.43;4.93;;;;;;;11.90;100.00;98676.81;5035333;28;20516;-74
2023/06/02 03:38:37;;;;;;;11.20;4.30;;;;;;;11.92;100.00;98682.00;5030150;28;20108;-74
2023/06/02 03:41:03;;;;;;;8.27;4.70;;;;;;;12.00;100.00;98679.09;5001921;28;20030;-74
2023/06/02 03:43:28;;;;;;;8.40;4.72;;;;;;;12.05;100.00;98690.09;5037125;28;20144;-75
2023/06/02 03:45:53;;;;;;;9.70;4.43;;;;;;;12.09;100.00;98687.78;5017563;28;20026;-74
2023/06/02 03:48:18;;;;;;;8.70;4.80;;;;;;;12.05;100.00;98693.66;5037535;28;20163;-75
2023/06/02 03:50:44;;;;;;;7.18;4.63;;;;;;;12.09;100.00;98701.34;5024913;28;20033;-74
2023/06/02 03:53:09;;;;;;;9.48;4.80;;;;;;;12.05;100.00;98690.09;5027531;28;20032;-75
2023/06/02 03:55:34;;;;;;;9.13;4.70;;;;;;;12.11;100.00;98697.38;5017609;28;20037;-74
2023/06/02 03:58:00;;;;;;;7.28;4.60;;;;;;;12.17;100.00;98695.69;5030774;28;20021;-75
2023/06/02 04:00:25;;;;;;;12.27;4.80;;;;;;;12.16;100.00;98691.31;5035213;28;20109;-74
2023/06/02 04:02:50;;;;;;;10.07;4.90;;;;;;;12.23;100.00;98697.50;5033602;28;20037;-74
2023/06/02 04:05:16;;;;;;;8.80;4.70;;;;;;;12.31;100.00;98702.69;5030050;28;20032;-75
2023/06/02 04:07:41;;;;;;;11.85;4.97;;;;;;;12.35;100.00;98693.06;5011736;28;20017;-78
2023/06/02 04:10:07;;;;;;;8.25;4.95;;;;;;;12.45;100.00;98708.88;5032469;28;20105;-77
2023/06/02 04:12:32;;;;;;;7.65;4.75;;;;;;;12.36;100.00;98693.91;5020708;28;20492;-79
2023/06/02 04:14:58;;;;;;;8.93;4.47;;;;;;;12.33;100.00;98665.31;5024660;28;20040;-78
2023/06/02 04:17:25;;;;;;;9.57;4.72;;;;;;;12.25;100.00;98668.28;5016486;28;20084;-79
2023/06/02 04:19:51;;;;;;;7.57;4.57;;;;;;;12.63;100.00;98716.28;5028556;28;20018;-78
2023/06/02 04:22:16;;;;;;;8.30;4.78;;;;;;;12.54;100.00;98704.03;5039388;28;20456;-75
2023/06/02 04:24:42;;;;;;;12.15;5.40;;;;;;;12.44;100.00;98688.22;5038098;28;20025;-76
2023/06/02 04:27:07;;;;;;;12.57;5.30;;;;;;;12.64;100.00;98712.53;5042077;28;20025;-75
2023/06/02 04:29:33;;;;;;;11.27;5.20;;;;;;;12.54;100.00;98696.72;5041212;28;20080;-76
2023/06/02 04:31:58;;;;;;;9.90;4.78;;;;;;;12.62;100.00;98695.63;5039337;28;20089;-75
2023/06/02 04:34:23;;;;;;;11.60;4.63;;;;;;;12.86;100.00;98727.41;5048927;28;20028;-75
2023/06/02 04:36:50;;;;;;;11.07;5.15;;;;;;;12.89;100.00;98716.09;5017103;28;20021;-75
2023/06/02 04:39:15;;;;;;;12.15;5.22;;;;;;;12.85;100.00;98717.59;5032278;28;20018;-73
2023/06/02 04:41:41;;;;;;;8.57;5.10;;;;;;;12.91;100.00;98710.44;5019374;28;20037;-80
2023/06/02 04:44:08;;;;;;;15.25;4.90;;;;;;;13.10;100.00;98725.75;5017411;28;20021;-75
2023/06/02 04:46:34;;;;;;;11.10;4.55;;;;;;;13.22;100.00;98719.59;5025645;28;20120;-74
2023/06/02 04:48:59;;;;;;;8.05;4.53;;;;;;;13.21;100.00;98716.06;5034590;28;20133;-75
2023/06/02 04:51:29;;;;;;;9.13;4.45;;;;;;;13.27;100.00;98719.78;5041686;28;20025;-74
2023/06/02 04:53:54;;;;;;;11.18;4.80;;;;;;;13.29;100.00;98713.09;5014320;28;20065;-74
2023/06/02 04:56:20;;;;;;;7.95;4.80;;;;;;;13.56;100.00;98743.53;5039466;28;20056;-72
2023/06/02 04:58:45;;;;;;;8.50;4.35;;;;;;;13.60;100.00;98722.19;5020952;28;20056;-82
2023/06/02 05:01:10;;;;;;;9.95;4.32;;;;;;;13.66;100.00;98724.00;5033247;28;20517;-79
2023/06/02 05:03:36;;;;;;;7.47;4.55;;;;;;;13.87;100.00;98735.50;5041195;28;20032;-79
2023/06/02 05:06:02;;;;;;;8.38;4.80;;;;;;;13.76;100.00;98709.91;5020404;28;20588;-78
2023/06/02 05:08:27;;;;;;;7.97;4.75;;;;;;;14.02;100.00;98739.50;5022917;28;20089;-80
2023/06/02 05:10:53;;;;;;;8.98;4.72;;;;;;;14.07;100.00;98749.72;5030561;28;20029;-75
2023/06/02 05:13:18;;;;;;;9.43;4.57;;;;;;;14.19;100.00;98738.88;5038955;28;20033;-77
2023/06/02 05:15:46;;;;;;;8.52;4.68;;;;;;;14.23;100.00;98724.59;5025333;28;20021;-77
2023/06/02 05:18:14;;;;;;;9.00;4.90;;;;;;;14.24;100.00;98718.09;5000446;28;20502;-77
2023/06/02 05:20:41;;;;;;;10.30;5.00;;;;;;;14.60;100.00;98746.34;5013536;28;20487;-77
2023/06/02 05:23:06;;;;;;;15.52;5.00;;;;;;;14.67;100.00;98736.19;5032379;28;20080;-77
2023/06/02 05:25:31;;;;;;;7.82;4.32;;;;;;;14.60;100.00;98729.16;5012809;28;20471;-77
2023/06/02 05:27:57;;;;;;;6.22;4.05;;;;;;;14.72;100.00;98715.59;5025746;28;20051;-77
2023/06/02 05:30:22;;;;;;;10.82;5.32;;;;;;;14.93;100.00;98725.94;5029884;28;20060;-78
2023/06/02 05:32:47;;;;;;;7.57;4.28;;;;;;;15.18;100.00;98733.09;5032286;28;20036;-77
2023/06/02 05:35:13;;;;;;;8.95;4.55;;;;;;;15.41;100.00;98727.69;5022194;28;20497;-77
2023/06/02 05:37:38;;;;;;;8.43;4.50;;;;;;;15.52;100.00;98726.00;5025414;28;20029;-77
2023/06/02 05:40:04;;;;;;;7.22;4.10;;;;;;;15.70;100.00;98733.28;5047594;28;21594;-77
2023/06/02 05:42:29;;;;;;;6.55;4.30;;;;;;;15.67;100.00;98693.63;5032761;28;20026;-77
2023/06/02 05:44:55;;;;;;;7.97;4.18;;;;;;;16.05;100.00;98740.56;5028824;28;20101;-77
2023/06/02 05:47:20;;;;;;;6.30;4.10;;;;;;;16.18;100.00;98734.84;5028551;28;20112;-77
2023/06/02 05:49:45;;;;;;;6.55;4.25;;;;;;;16.22;100.00;98736.03;5017601;28;20029;-77
2023/06/02 05:52:11;;;;;;;10.88;4.28;;;;;;;16.39;100.00;98716.97;5030126;28;20533;-77
2023/06/02 05:54:37;;;;;;;5.35;3.75;;;;;;;16.67;100.00;98743.47;5039249;28;20048;-77
2023/06/02 05:57:03;;;;;;;8.48;4.05;;;;;;;16.81;100.00;98728.44;5038995;28;20032;-78
2023/06/02 05:59:28;;;;;;;7.68;4.05;;;;;;;16.83;100.00;98730.94;5027601;28;20474;-79
2023/06/02 06:01:54;;;;;;;7.13;3.83;;;;;;;16.70;100.00;98699.25;5022261;28;20048;-78
2023/06/02 06:04:19;;;;;;;7.43;4.38;;;;;;;17.04;100.00;98743.06;5053946;28;20067;-78
2023/06/02 06:06:45;;;;;;;6.03;3.67;;;;;;;17.07;100.00;98737.91;5033513;28;20574;-78
2023/06/02 06:09:10;;;;;;;7.38;3.90;;;;;;;17.33;100.00;98752.03;5025956;28;20146;-76
2023/06/02 06:11:36;;;;;;;8.23;4.13;;;;;;;17.35;100.00;98732.66;5023491;28;20086;-76
2023/06/02 06:14:02;;;;;;;10.05;4.10;;;;;;;17.45;100.00;98736.38;5022889;28;20055;-78
2023/06/02 06:16:28;;;;;;;10.93;4.65;;;;;;;17.49;100.00;98726.56;5027389;28;20511;-78
2023/06/02 06:18:55;;;;;;;6.95;3.65;;;;;;;17.68;100.00;98757.25;5023535;28;20021;-77
2023/06/02 06:21:20;;;;;;;9.95;4.53;;;;;;;17.94;100.00;98755.69;5023070;28;20026;-78
2023/06/02 06:23:45;;;;;;;6.38;3.95;;;;;;;18.09;100.00;98755.09;5034349;28;20060;-78
2023/06/02 06:26:11;;;;;;;7.32;4.00;;;;;;;18.16;100.00;98761.22;5033280;28;20548;-78
2023/06/02 06:28:37;;;;;;;7.07;4.53;;;;;;;18.30;100.00;98738.94;5039420;28;20112;-74
2023/06/02 06:31:02;;;;;;;6.88;3.65;;;;;;;18.44;100.00;98723.75;5016358;28;20136;-77
2023/06/02 06:33:29;;;;;;;7.13;3.83;;;;;;;18.68;100.00;98735.25;5029036;28;20261;-77
2023/06/02 06:35:54;;;;;;;6.97;3.88;;;;;;;18.89;100.00;98752.78;5036134;28;20801;-77
2023/06/02 06:38:19;;;;;;;9.60;4.50;;;;;;;18.98;100.00;98728.44;5039901;28;20033;-77
2023/06/02 06:40:45;;;;;;;21.35;6.47;;;;;;;19.64;100.00;98766.56;5034967;28;20116;-77
2023/06/02 06:43:10;;;;;;;8.68;4.68;;;;;;;20.32;100.00;98759.31;5013273;28;20458;-76
2023/06/02 06:45:35;;;;;;;19.80;4.80;;;;;;;21.78;100.00;98741.69;5025093;28;20542;-77
2023/06/02 06:48:00;;;;;;;5.78;3.70;;;;;;;24.30;89.96;98754.69;5038029;28;20491;-76
2023/06/02 06:50:26;;;;;;;6.63;3.70;;;;;;;26.37;71.79;98728.66;5016983;28;20704;-76
2023/06/02 06:52:51;;;;;;;5.68;3.13;;;;;;;28.00;62.90;98742.63;5015357;28;20033;-76
2023/06/02 06:55:17;;;;;;;10.02;3.53;;;;;;;29.13;56.76;98754.06;5022012;28;20020;-76
2023/06/02 06:57:42;;;;;;;6.57;3.65;;;;;;;29.80;53.40;98755.53;5031347;28;20014;-77
2023/06/02 07:00:09;;;;;;;6.82;3.38;;;;;;;30.36;50.44;98739.56;5005757;28;20152;-77
2023/06/02 07:02:34;;;;;;;12.13;3.70;;;;;;;30.89;47.85;98733.69;5028581;28;20471;-77
2023/06/02 07:04:59;;;;;;;5.05;3.50;;;;;;;31.16;47.25;98758.31;5034901;28;20108;-75
2023/06/02 07:07:25;;;;;;;8.60;3.60;;;;;;;31.37;45.62;98769.50;5015406;28;20035;-78
2023/06/02 07:09:50;;;;;;;5.68;3.67;;;;;;;31.20;44.86;98748.09;5040291;28;20455;-78
2023/06/02 07:12:15;;;;;;;5.78;3.40;;;;;;;32.55;44.53;98758.88;5017568;28;20112;-78
2023/06/02 07:14:41;;;;;;;5.88;2.78;;;;;;;33.73;41.84;98737.19;5035091;28;20483;-78
2023/06/02 07:17:06;;;;;;;4.57;3.17;;;;;;;34.00;41.28;98757.13;5000055;28;20113;-78
2023/06/02 07:19:31;;;;;;;6.93;2.90;;;;;;;34.28;39.79;98756.28;5013497;28;20025;-78
2023/06/02 07:21:57;;;;;;;7.68;2.63;;;;;;;35.32;39.71;98737.06;5031009;28;20025;-78
2023/06/02 07:24:22;;;;;;;5.82;3.10;;;;;;;35.81;38.49;98752.50;5030857;28;20131;-78
2023/06/02 07:26:47;;;;;;;3.78;2.55;;;;;;;35.70;36.81;98758.72;5023217;28;20492;-77
2023/06/02 07:29:13;;;;;;;5.97;2.42;;;;;;;36.32;36.57;98764.31;5033012;28;20030;-78
2023/06/02 07:31:38;;;;;;;3.92;2.78;;;;;;;35.97;36.87;98765.28;5040988;28;20146;-77
2023/06/02 07:34:03;;;;;;;6.53;3.25;;;;;;;34.46;37.10;98746.31;5037578;28;20032;-78
2023/06/02 07:36:29;;;;;;;6.60;2.60;;;;;;;35.74;36.97;98744.75;5032716;28;20017;-78
2023/06/02 07:38:54;;;;;;;3.95;2.88;;;;;;;34.87;37.62;98760.94;5051062;28;20074;-78
2023/06/02 07:41:20;;;;;;;8.82;3.20;;;;;;;35.86;36.21;98755.00;5016090;28;20124;-78
2023/06/02 07:43:46;;;;;;;7.50;3.25;;;;;;;36.76;35.10;98732.84;5040380;28;20099;-77
2023/06/02 07:46:11;;;;;;;3.80;2.88;;;;;;;36.27;35.01;98761.00;5042321;28;20025;-78
2023/06/02 07:48:37;;;;;;;3.95;2.90;;;;;;;36.33;35.44;98763.13;5031385;28;20033;-78
2023/06/02 07:51:02;;;;;;;4.90;3.13;;;;;;;35.86;35.39;98735.28;5044211;28;20059;-78
2023/06/02 07:53:29;;;;;;;4.80;2.72;;;;;;;37.05;35.24;98759.47;5015514;28;20278;-78
2023/06/02 07:55:55;;;;;;;3.47;2.50;;;;;;;38.05;32.86;98747.75;5032726;28;20459;-78
2023/06/02 07:58:20;;;;;;;6.15;2.58;;;;;;;37.52;33.87;98736.66;5033187;28;20035;-78
2023/06/02 08:00:45;;;;;;;4.65;2.72;;;;;;;37.35;33.74;98747.34;5034625;28;20036;-77
2023/06/02 08:03:10;;;;;;;3.47;2.63;;;;;;;37.66;33.64;98746.13;5024164;28;20029;-76
2023/06/02 08:05:36;;;;;;;3.17;2.67;;;;;;;38.09;33.72;98751.41;5025663;28;20358;-77
2023/06/02 08:08:01;;;;;;;7.40;3.00;;;;;;;37.35;33.80;98740.88;5034180;28;20275;-77
2023/06/02 08:10:28;;;;;;;4.93;2.85;;;;;;;37.92;33.65;98750.03;5042706;28;20059;-77
2023/06/02 08:12:53;;;;;;;4.57;2.97;;;;;;;38.19;32.40;98749.91;5013579;28;20079;-77
2023/06/02 08:15:18;;;;;;;4.70;3.00;;;;;;;38.43;32.66;98734.38;5014391;28;20030;-77
2023/06/02 08:17:44;;;;;;;4.63;3.22;;;;;;;37.97;32.40;98744.06;5026888;28;20264;-80
2023/06/02 08:20:09;;;;;;;4.07;2.70;;;;;;;38.14;32.44;98742.59;5023496;28;20024;-82
2023/06/02 08:22:36;;;;;;;5.03;2.60;;;;;;;38.87;32.27;98741.94;5030870;28;20123;-80
2023/06/02 08:25:02;;;;;;;5.50;2.97;;;;;;;38.21;33.06;98748.31;5032616;28;20672;-77
2023/06/02 08:27:29;;;;;;;5.55;3.10;;;;;;;38.82;31.52;98731.00;5033294;28;20037;-80
2023/06/02 08:29:56;;;;;;;4.88;2.90;;;;;;;38.08;31.71;98739.31;5031791;28;20146;-78
2023/06/02 08:32:22;;;;;;;4.35;2.97;;;;;;;37.24;33.18;98750.03;5038302;28;20115;-77
2023/06/02 08:34:50;;;;;;;9.73;2.95;;;;;;;38.08;31.48;98744.97;5038345;28;20108;-77
2023/06/02 08:37:16;;;;;;;7.32;3.08;;;;;;;37.84;32.37;98725.75;5016592;28;20108;-77
2023/06/02 08:39:46;;;;;;;7.43;3.40;;;;;;;38.47;31.88;98747.34;5008811;28;20146;-77
2023/06/02 08:42:13;;;;;;;4.20;2.67;;;;;;;38.96;31.77;98743.25;5034145;28;20072;-76
2023/06/02 08:44:40;;;;;;;6.35;2.60;;;;;;;38.89;31.57;98740.38;5036484;28;20036;-78
2023/06/02 08:47:10;;;;;;;5.00;3.10;;;;;;;38.17;31.84;98749.47;5022351;28;20057;-77
2023/06/02 08:49:36;;;;;;;3.55;3.00;;;;;;;37.79;32.18;98726.91;5031733;28;20034;-77
2023/06/02 08:52:09;;;;;;;4.75;2.95;;;;;;;37.93;32.19;98757.28;5021397;28;20533;-77
2023/06/02 08:54:36;;;;;;;3.53;2.58;;;;;;;38.36;32.03;98760.56;5036833;28;20033;-77
2023/06/02 08:57:03;;;;;;;4.32;2.47;;;;;;;39.97;30.29;98749.31;5048579;28;20040;-77
2023/06/02 08:59:28;;;;;;;5.55;2.97;;;;;;;38.77;31.18;98741.47;5041598;28;20104;-77
2023/06/02 09:01:55;;;;;;;4.88;2.67;;;;;;;39.03;31.68;98755.81;5032266;28;20104;-77
2023/06/02 09:04:20;;;;;;;6.18;3.00;;;;;;;38.85;31.52;98744.34;5039128;28;20029;-77
2023/06/02 09:06:48;;;;;;;4.67;2.43;;;;;;;39.41;30.63;98746.72;5041345;28;20030;-77
2023/06/02 09:09:14;;;;;;;4.25;2.42;;;;;;;39.51;30.73;98749.97;5030195;28;20272;-77
2023/06/02 09:11:39;;;;;;;6.93;2.95;;;;;;;39.67;30.18;98739.13;5030490;28;20017;-77
2023/06/02 09:14:19;;;;;;;5.00;2.87;;;;;;;38.46;30.98;98753.38;5030744;28;20439;-77
2023/06/02 09:16:44;;;;;;;4.47;2.70;;;;;;;38.11;31.47;98747.00;5025397;28;20280;-77
2023/06/02 09:19:10;;;;;;;3.78;2.63;;;;;;;38.94;30.54;98742.84;5032557;28;20075;-77
2023/06/02 09:21:36;;;;;;;4.07;2.67;;;;;;;39.28;30.38;98739.78;5014963;28;20037;-78
2023/06/02 09:24:02;;;;;;;7.97;2.83;;;;;;;39.37;30.60;98740.22;5028125;28;20029;-77
2023/06/02 09:26:30;;;;;;;3.65;2.28;;;;;;;39.65;30.16;98752.88;5034708;28;20052;-78
2023/06/02 09:29:13;;;;;;;;;;;;;;;39.76;30.04;98750.88;5030667;28;20025;-77
2023/06/02 09:31:45;;;;;;;4.03;2.30;;;;;;;40.74;29.05;98755.44;5036751;28;19913;-77
2023/06/02 09:34:13;;;;;;;3.92;2.30;;;;;;;40.87;29.48;98750.16;5046441;28;20025;-77
2023/06/02 09:36:38;;;;;;;5.80;2.60;;;;;;;40.78;28.77;98747.75;4997445;28;20364;-77
2023/06/02 09:39:05;;;;;;;5.82;2.38;;;;;;;40.89;28.84;98748.53;4996417;28;20041;-77
2023/06/02 09:41:31;;;;;;;6.75;3.00;;;;;;;40.70;29.01;98746.94;5032934;28;20025;-77
2023/06/02 09:43:57;;;;;;;3.88;2.20;;;;;;;40.42;29.32;98742.09;5033435;28;20056;-77
2023/06/02 09:46:23;;;;;;;3.42;2.53;;;;;;;40.68;29.06;98738.03;5019131;28;21011;-77
2023/06/02 09:48:56;;;;;;;5.63;2.65;;;;;;;40.96;28.49;98737.16;5039822;28;20076;-77
2023/06/02 09:51:24;;;;;;;4.10;2.53;;;;;;;40.44;28.73;98733.19;5016261;28;20053;-77
2023/06/02 09:53:50;;;;;;;3.20;2.15;;;;;;;41.00;27.82;98725.78;5029115;28;20029;-77
2023/06/02 09:56:17;;;;;;;3.50;1.98;;;;;;;40.85;29.39;98716.53;5042273;28;20475;-77
2023/06/02 09:58:42;;;;;;;3.08;2.33;;;;;;;39.75;29.89;98720.09;5033879;28;20040;-77
2023/06/02 10:01:11;;;;;;;3.40;2.60;;;;;;;40.13;29.23;98712.09;5039932;28;20017;-78
2023/06/02 10:03:37;;;;;;;3.55;2.42;;;;;;;39.20;29.37;98730.44;5020756;28;20033;-77
2023/06/02 10:06:16;;;;;;;6.75;2.42;;;;;;;38.52;30.19;98724.38;5043006;28;20021;-77
2023/06/02 10:09:09;;;;;;;3.72;2.60;;;;;;;37.97;30.22;98715.81;5033629;28;20219;-77
2023/06/02 10:11:34;;;;;;;5.47;2.80;;;;;;;39.63;29.88;98736.28;5034639;28;20037;-77
2023/06/02 10:14:26;;;;;;;4.10;2.20;;;;;;;40.36;28.04;98726.69;5041975;28;20031;-77
2023/06/02 10:17:03;;;;;;;4.53;2.17;;;;;;;40.51;28.22;98719.00;5038154;28;20034;-77
2023/06/02 10:19:47;;;;;;;3.97;1.75;;;;;;;42.01;27.57;98717.66;5031981;28;20029;-77
2023/06/02 10:22:48;;;;;;;3.63;1.83;;;;;;;41.17;27.68;98724.16;5039180;28;20056;-77
2023/06/02 10:25:38;;;;;;;4.80;2.10;;;;;;;40.77;28.78;98725.44;5041282;28;20026;-77
2023/06/02 10:28:06;;;;;;;3.35;2.17;;;;;;;40.31;27.54;98727.91;5020911;28;20064;-78
2023/06/02 10:30:33;;;;;;;2.78;2.25;;;;;;;40.34;28.09;98725.47;5031849;28;20108;-77
2023/06/02 10:32:58;;;;;;;2.42;1.90;;;;;;;41.09;28.03;98717.69;5033079;28;20032;-77
2023/06/02 10:36:00;;;;;;;5.65;2.15;;;;;;;41.78;27.49;98709.66;5026963;28;20099;-77
2023/06/02 10:38:27;;;;;;;6.65;2.20;;;;;;;42.23;26.38;98721.13;5033471;28;20025;-78
2023/06/02 10:40:52;;;;;;;2.90;1.80;;;;;;;41.85;27.02;98703.13;5018567;28;20036;-77
2023/06/02 10:43:18;;;;;;;4.03;2.22;;;;;;;40.69;26.60;98710.47;5036719;28;20033;-77
2023/06/02 10:45:44;;;;;;;2.38;1.60;;;;;;;40.55;27.88;98716.97;5038522;28;20071;-77
2023/06/02 10:48:40;;;;;;;3.25;1.98;;;;;;;41.66;26.30;98710.13;5053146;28;20029;-77
2023/06/02 10:51:07;;;;;;;3.30;2.10;;;;;;;41.77;27.21;98702.38;5026113;28;20053;-77
2023/06/02 10:53:33;;;;;;;5.05;1.92;;;;;;;41.68;27.15;98704.84;5016831;28;20041;-78
2023/06/02 10:56:35;;;;;;;3.00;1.83;;;;;;;41.92;26.96;98706.75;5015429;28;20022;-77
2023/06/02 10:59:02;;;;;;;3.38;1.70;;;;;;;41.24;26.73;98695.75;5042652;28;20036;-78
2023/06/02 11:01:52;;;;;;;4.00;2.10;;;;;;;41.13;27.40;98701.44;5033447;28;20038;-78
2023/06/02 11:04:24;;;;;;;4.75;2.35;;;;;;;40.19;27.75;98705.59;5020680;28;20039;-78
2023/06/02 11:07:21;;;;;;;4.63;2.05;;;;;;;39.62;28.65;98694.22;5017023;28;20520;-78
2023/06/02 11:09:49;;;;;;;4.07;1.90;;;;;;;40.36;28.42;98698.34;5024046;28;20479;-78
2023/06/02 11:12:15;;;;;;;3.70;1.90;;;;;;;39.93;28.04;98689.00;5012384;28;20033;-79
2023/06/02 11:15:06;;;;;;;2.08;1.45;;;;;;;40.85;27.09;98698.66;5030757;28;20022;-78
2023/06/02 11:17:34;;;;;;;3.60;1.90;;;;;;;42.27;25.75;98684.13;5002561;28;20044;-78
2023/06/02 11:20:00;;;;;;;2.15;1.67;;;;;;;41.85;25.81;98695.41;5023151;28;20073;-78
2023/06/02 11:22:27;;;;;;;3.15;1.70;;;;;;;42.37;25.31;98683.22;5033262;28;20029;-78
2023/06/02 11:24:53;;;;;;;5.07;1.60;;;;;;;42.32;25.80;98678.00;5047398;28;20104;-78
2023/06/02 11:27:20;;;;;;;3.30;2.20;;;;;;;41.12;25.63;98685.66;5032018;28;20037;-78
2023/06/02 11:29:45;;;;;;;2.97;1.73;;;;;;;41.35;26.42;98676.63;5031879;28;20021;-79